sensor_id;sensor_type;location;lat;lon;timestamp;temperature;humidity
55719;DHT22;41623;46.104;19.656;2022-08-19T09:09:56;768.00;1203.20
55719;DHT22;41623;46.104;19.656;2022-08-19T09:12:58;743.20;1203.20
55719;DHT22;41623;46.104;19.656;2022-08-19T09:16:20;743.10;1228.80
55719;DHT22;41623;46.104;19.656;2022-08-19T14:36:20;768.70;1075.20
55719;DHT22;41623;46.104;19.656;2022-08-19T14:38:47;768.40;1075.20
55719;DHT22;41623;46.104;19.656;2022-08-19T14:41:21;768.50;1049.60
55719;DHT22;41623;46.104;19.656;2022-08-19T14:43:50;768.60;1024.00
55719;DHT22;41623;46.104;19.656;2022-08-19T14:46:19;768.50;1049.60
55719;DHT22;41623;46.104;19.656;2022-08-19T14:48:46;768.40;1049.60
55719;DHT22;41623;46.104;19.656;2022-08-19T14:51:12;768.50;1075.20
55719;DHT22;41623;46.104;19.656;2022-08-19T14:53:39;768.30;1075.20
55719;DHT22;41623;46.104;19.656;2022-08-19T14:56:11;768.30;1049.60
55719;DHT22;41623;46.104;19.656;2022-08-19T14:58:38;768.30;1049.60
55719;DHT22;41623;46.104;19.656;2022-08-19T15:01:05;768.30;1075.20
55719;DHT22;41623;46.104;19.656;2022-08-19T15:03:31;768.30;1075.20
55719;DHT22;41623;46.104;19.656;2022-08-19T15:05:58;768.20;1075.20
55719;DHT22;41623;46.104;19.656;2022-08-19T15:08:27;768.30;1049.60
55719;DHT22;41623;46.104;19.656;2022-08-19T15:10:54;768.30;1049.60
55719;DHT22;41623;46.104;19.656;2022-08-19T15:13:20;768.20;1049.60
55719;DHT22;41623;46.104;19.656;2022-08-19T15:15:47;768.30;1049.60
55719;DHT22;41623;46.104;19.656;2022-08-19T15:18:13;768.30;1049.60
55719;DHT22;41623;46.104;19.656;2022-08-19T15:20:39;768.20;1049.60
55719;DHT22;41623;46.104;19.656;2022-08-19T15:23:06;768.30;1049.60
55719;DHT22;41623;46.104;19.656;2022-08-19T15:25:32;768.30;1049.60
55719;DHT22;41623;46.104;19.656;2022-08-19T15:27:58;768.30;1049.60
55719;DHT22;41623;46.104;19.656;2022-08-19T15:30:27;768.20;1049.60
55719;DHT22;41623;46.104;19.656;2022-08-19T15:32:54;768.30;1049.60
55719;DHT22;41623;46.104;19.656;2022-08-19T15:35:22;768.30;1024.00
55719;DHT22;41623;46.104;19.656;2022-08-19T15:37:50;768.30;1024.00
55719;DHT22;41623;46.104;19.656;2022-08-19T15:40:16;768.20;1049.60
55719;DHT22;41623;46.104;19.656;2022-08-19T15:42:42;768.20;1049.60
55719;DHT22;41623;46.104;19.656;2022-08-19T15:45:10;768.20;1049.60
55719;DHT22;41623;46.104;19.656;2022-08-19T15:47:37;768.20;1024.00
55719;DHT22;41623;46.104;19.656;2022-08-19T15:53:10;768.20;1049.60
55719;DHT22;41623;46.104;19.656;2022-08-19T15:55:32;768.20;1049.60
55719;DHT22;41623;46.104;19.656;2022-08-19T15:57:59;768.20;1049.60
55719;DHT22;41623;46.104;19.656;2022-08-19T16:00:43;768.20;1024.00
55719;DHT22;41623;46.104;19.656;2022-08-19T16:03:27;768.20;1024.00
55719;DHT22;41623;46.104;19.656;2022-08-19T16:06:11;768.20;1024.00
55719;DHT22;41623;46.104;19.656;2022-08-19T16:08:58;768.20;1024.00
55719;DHT22;41623;46.104;19.656;2022-08-19T16:11:29;768.20;1049.60
55719;DHT22;41623;46.104;19.656;2022-08-19T16:13:57;768.20;1024.00
55719;DHT22;41623;46.104;19.656;2022-08-19T16:16:26;768.20;1024.00
55719;DHT22;41623;46.104;19.656;2022-08-19T16:18:54;768.20;1024.00
55719;DHT22;41623;46.104;19.656;2022-08-19T16:21:22;768.20;998.40
55719;DHT22;41623;46.104;19.656;2022-08-19T16:23:49;768.20;1024.00
55719;DHT22;41623;46.104;19.656;2022-08-19T16:26:16;768.20;1024.00
55719;DHT22;41623;46.104;19.656;2022-08-19T16:28:45;768.20;1024.00
55719;DHT22;41623;46.104;19.656;2022-08-19T16:31:15;768.30;1024.00
55719;DHT22;41623;46.104;19.656;2022-08-19T16:33:41;768.20;1024.00
55719;DHT22;41623;46.104;19.656;2022-08-19T16:36:08;768.20;1024.00
55719;DHT22;41623;46.104;19.656;2022-08-19T16:38:33;768.30;1024.00
55719;DHT22;41623;46.104;19.656;2022-08-19T16:41:00;768.20;1024.00
55719;DHT22;41623;46.104;19.656;2022-08-19T16:43:28;768.20;1024.00
55719;DHT22;41623;46.104;19.656;2022-08-19T16:45:55;768.30;1024.00
55719;DHT22;41623;46.104;19.656;2022-08-19T16:48:24;768.30;1024.00
55719;DHT22;41623;46.104;19.656;2022-08-19T16:50:54;768.20;1024.00
55719;DHT22;41623;46.104;19.656;2022-08-19T16:53:22;768.20;1024.00
55719;DHT22;41623;46.104;19.656;2022-08-19T16:55:57;768.20;1024.00
55719;DHT22;41623;46.104;19.656;2022-08-19T16:58:24;768.30;1024.00
55719;DHT22;41623;46.104;19.656;2022-08-19T17:00:51;768.30;1024.00
55719;DHT22;41623;46.104;19.656;2022-08-19T17:03:17;768.20;1024.00
55719;DHT22;41623;46.104;19.656;2022-08-19T17:05:46;768.30;1024.00
55719;DHT22;41623;46.104;19.656;2022-08-19T17:08:13;768.30;1024.00
55719;DHT22;41623;46.104;19.656;2022-08-19T17:10:41;768.30;1024.00
55719;DHT22;41623;46.104;19.656;2022-08-19T17:13:07;768.30;1024.00
55719;DHT22;41623;46.104;19.656;2022-08-19T17:15:33;768.30;1024.00
55719;DHT22;41623;46.104;19.656;2022-08-19T17:18:01;768.30;1024.00
55719;DHT22;41623;46.104;19.656;2022-08-19T17:20:28;768.30;1049.60
55719;DHT22;41623;46.104;19.656;2022-08-19T17:22:54;768.30;1049.60
55719;DHT22;41623;46.104;19.656;2022-08-19T17:25:22;768.30;1049.60
55719;DHT22;41623;46.104;19.656;2022-08-19T17:27:48;768.20;1049.60
55719;DHT22;41623;46.104;19.656;2022-08-19T17:30:17;768.30;1049.60
55719;DHT22;41623;46.104;19.656;2022-08-19T17:32:43;768.20;1049.60
55719;DHT22;41623;46.104;19.656;2022-08-19T17:35:09;768.20;1049.60
55719;DHT22;41623;46.104;19.656;2022-08-19T17:37:35;768.20;1049.60
55719;DHT22;41623;46.104;19.656;2022-08-19T17:40:03;768.20;1049.60
55719;DHT22;41623;46.104;19.656;2022-08-19T17:42:31;768.20;1049.60
55719;DHT22;41623;46.104;19.656;2022-08-19T17:44:57;768.20;1049.60
55719;DHT22;41623;46.104;19.656;2022-08-19T17:47:24;768.10;1049.60
55719;DHT22;41623;46.104;19.656;2022-08-19T17:49:49;768.10;1049.60
55719;DHT22;41623;46.104;19.656;2022-08-19T17:52:16;768.10;1049.60
55719;DHT22;41623;46.104;19.656;2022-08-19T17:54:43;768.20;1049.60
55719;DHT22;41623;46.104;19.656;2022-08-19T17:57:09;768.10;1049.60
55719;DHT22;41623;46.104;19.656;2022-08-19T17:59:35;768.20;1049.60
55719;DHT22;41623;46.104;19.656;2022-08-19T18:02:03;768.10;1049.60
55719;DHT22;41623;46.104;19.656;2022-08-19T18:04:29;768.20;1049.60
55719;DHT22;41623;46.104;19.656;2022-08-19T18:06:55;768.10;1024.00
55719;DHT22;41623;46.104;19.656;2022-08-19T18:09:26;768.00;1075.20
55719;DHT22;41623;46.104;19.656;2022-08-19T18:11:53;743.20;1126.40
55719;DHT22;41623;46.104;19.656;2022-08-19T18:14:21;743.00;1177.60
55719;DHT22;41623;46.104;19.656;2022-08-19T18:16:56;742.80;1203.20
55719;DHT22;41623;46.104;19.656;2022-08-19T18:19:25;742.60;1228.80
55719;DHT22;41623;46.104;19.656;2022-08-19T18:21:51;717.70;1254.40
